Dati Storici

Data ora Umidita' aria (%) Temperatura aria (°C) Rad globale (W/m²) Gonioanemometro (°) Tacoanemometro (m/s) Pioggia (mm)
22-06-2020 00:10 71.1 % 22.865 205.408 0.576 0 0
22-06-2020 00:00 69.9 % 22.878 183.376 -0.019 0 0
21-06-2020 23:50 69.4 % 22.954 254.935 -0.019 0 0
21-06-2020 23:40 69.7 % 23.161 175.016 -0.018 0 0
21-06-2020 23:30 68.9 % 23.204 198.035 0.343 0 0
21-06-2020 23:20 68.4 % 23.278 112.408 1.135 0 0
21-06-2020 23:10 68.4 % 23.352 121.433 -0.019 0 0
21-06-2020 23:00 68.3 % 23.308 62.426 -0.018 0 0
21-06-2020 22:50 68.9 % 23.219 82.326 0.494 0 0
21-06-2020 22:40 70.9 % 23.357 164.743 -0.014 0 0
21-06-2020 22:30 71.9 % 23.208 125.4 -0.017 0 0
21-06-2020 22:20 72.1 % 22.998 111.546 -0.016 0 0
21-06-2020 22:10 71 % 23.063 105.9 1.491 0 0
21-06-2020 22:00 69.9 % 23.114 121.013 0.567 0 0
21-06-2020 21:50 70.8 % 23.069 127.783 1.055 0 0
21-06-2020 21:40 68.7 % 23.19 70.915 -0.02 0 0
21-06-2020 21:30 66.8 % 23.263 79.095 -0.02 0 0
21-06-2020 21:20 64.3 % 23.434 88.951 1.219 0 0
21-06-2020 21:10 58.9 % 23.669 113.671 -0.01 0 0
21-06-2020 21:00 57.4 % 23.735 81.253 1.717 0 0

I dati sono presentati in modo automatico a scopo informativo. In seguito a verifica i dati possono subire modifiche o essere invalidati e non riportati negli archivi definitivi.